sensor_id;sensor_type;location;lat;lon;timestamp;temperature;humidity
22682;DHT22;11508;50.856;4.380;2023-03-11T00:00:45;2.20;92.50
22682;DHT22;11508;50.856;4.380;2023-03-11T00:03:13;2.20;93.70
22682;DHT22;11508;50.856;4.380;2023-03-11T00:05:41;2.20;94.40
22682;DHT22;11508;50.856;4.380;2023-03-11T00:08:09;2.20;93.80
22682;DHT22;11508;50.856;4.380;2023-03-11T00:10:38;2.30;94.00
22682;DHT22;11508;50.856;4.380;2023-03-11T00:13:05;2.20;92.70
22682;DHT22;11508;50.856;4.380;2023-03-11T00:15:32;2.20;95.30
22682;DHT22;11508;50.856;4.380;2023-03-11T00:17:58;2.20;93.00
22682;DHT22;11508;50.856;4.380;2023-03-11T00:20:35;2.10;92.10
22682;DHT22;11508;50.856;4.380;2023-03-11T00:23:02;2.10;93.90
22682;DHT22;11508;50.856;4.380;2023-03-11T00:25:30;2.10;94.80
22682;DHT22;11508;50.856;4.380;2023-03-11T00:27:57;2.10;94.60
22682;DHT22;11508;50.856;4.380;2023-03-11T00:30:24;2.10;95.40
22682;DHT22;11508;50.856;4.380;2023-03-11T00:32:51;2.00;97.40
22682;DHT22;11508;50.856;4.380;2023-03-11T00:35:23;2.10;97.90
22682;DHT22;11508;50.856;4.380;2023-03-11T00:37:53;2.20;95.00
22682;DHT22;11508;50.856;4.380;2023-03-11T00:40:20;2.30;92.60
22682;DHT22;11508;50.856;4.380;2023-03-11T00:42:46;2.20;87.30
22682;DHT22;11508;50.856;4.380;2023-03-11T00:45:13;2.10;90.90
22682;DHT22;11508;50.856;4.380;2023-03-11T00:47:38;2.00;91.60
22682;DHT22;11508;50.856;4.380;2023-03-11T00:50:06;2.00;96.30
22682;DHT22;11508;50.856;4.380;2023-03-11T00:52:32;2.10;96.30
22682;DHT22;11508;50.856;4.380;2023-03-11T00:54:58;2.20;92.50
22682;DHT22;11508;50.856;4.380;2023-03-11T00:57:24;2.00;92.20
22682;DHT22;11508;50.856;4.380;2023-03-11T00:59:51;2.10;95.10
22682;DHT22;11508;50.856;4.380;2023-03-11T01:02:17;2.10;92.20
22682;DHT22;11508;50.856;4.380;2023-03-11T01:04:43;2.30;91.20
22682;DHT22;11508;50.856;4.380;2023-03-11T01:07:08;2.20;85.10
22682;DHT22;11508;50.856;4.380;2023-03-11T01:09:34;2.00;91.10
22682;DHT22;11508;50.856;4.380;2023-03-11T01:12:00;2.00;93.20
22682;DHT22;11508;50.856;4.380;2023-03-11T01:14:25;1.90;95.10
22682;DHT22;11508;50.856;4.380;2023-03-11T01:16:51;1.90;95.80
22682;DHT22;11508;50.856;4.380;2023-03-11T01:19:18;1.90;97.10
22682;DHT22;11508;50.856;4.380;2023-03-11T01:21:44;1.90;95.20
22682;DHT22;11508;50.856;4.380;2023-03-11T01:24:09;2.00;96.00
22682;DHT22;11508;50.856;4.380;2023-03-11T01:26:35;1.90;95.50
22682;DHT22;11508;50.856;4.380;2023-03-11T01:29:01;1.90;96.70
22682;DHT22;11508;50.856;4.380;2023-03-11T01:31:26;1.90;95.10
22682;DHT22;11508;50.856;4.380;2023-03-11T01:33:52;1.90;94.90
22682;DHT22;11508;50.856;4.380;2023-03-11T01:36:18;1.90;94.80
22682;DHT22;11508;50.856;4.380;2023-03-11T01:38:43;1.90;93.10
22682;DHT22;11508;50.856;4.380;2023-03-11T01:41:10;1.90;92.50
22682;DHT22;11508;50.856;4.380;2023-03-11T01:43:45;1.90;92.50
22682;DHT22;11508;50.856;4.380;2023-03-11T01:46:27;1.90;89.70
22682;DHT22;11508;50.856;4.380;2023-03-11T01:48:59;1.90;90.30
22682;DHT22;11508;50.856;4.380;2023-03-11T01:51:31;2.10;91.30
22682;DHT22;11508;50.856;4.380;2023-03-11T01:54:01;2.20;79.40
22682;DHT22;11508;50.856;4.380;2023-03-11T01:56:28;2.10;60.80
22682;DHT22;11508;50.856;4.380;2023-03-11T01:58:54;2.10;68.70
22682;DHT22;11508;50.856;4.380;2023-03-11T02:01:21;2.00;65.20
22682;DHT22;11508;50.856;4.380;2023-03-11T02:03:48;2.10;67.00
22682;DHT22;11508;50.856;4.380;2023-03-11T02:06:17;2.10;63.70
22682;DHT22;11508;50.856;4.380;2023-03-11T02:08:44;2.00;64.90
22682;DHT22;11508;50.856;4.380;2023-03-11T02:11:17;2.00;69.40
22682;DHT22;11508;50.856;4.380;2023-03-11T02:13:44;1.90;68.50
22682;DHT22;11508;50.856;4.380;2023-03-11T02:16:10;2.00;64.40
22682;DHT22;11508;50.856;4.380;2023-03-11T02:18:37;2.00;61.80
22682;DHT22;11508;50.856;4.380;2023-03-11T02:21:25;2.00;57.10
22682;DHT22;11508;50.856;4.380;2023-03-11T02:24:06;2.00;57.80
22682;DHT22;11508;50.856;4.380;2023-03-11T02:29:19;2.10;52.20
22682;DHT22;11508;50.856;4.380;2023-03-11T02:31:45;2.00;48.10
22682;DHT22;11508;50.856;4.380;2023-03-11T02:34:20;2.10;50.70
22682;DHT22;11508;50.856;4.380;2023-03-11T02:36:47;2.10;45.80
22682;DHT22;11508;50.856;4.380;2023-03-11T02:39:13;2.20;46.60
22682;DHT22;11508;50.856;4.380;2023-03-11T02:41:43;2.20;42.30
22682;DHT22;11508;50.856;4.380;2023-03-11T02:44:12;2.20;46.40
22682;DHT22;11508;50.856;4.380;2023-03-11T02:46:41;2.10;44.50
22682;DHT22;11508;50.856;4.380;2023-03-11T02:49:07;2.20;49.20
22682;DHT22;11508;50.856;4.380;2023-03-11T02:51:34;2.20;49.90
22682;DHT22;11508;50.856;4.380;2023-03-11T02:54:03;2.20;51.50
22682;DHT22;11508;50.856;4.380;2023-03-11T02:56:29;2.20;51.90
22682;DHT22;11508;50.856;4.380;2023-03-11T02:58:55;2.20;53.30
22682;DHT22;11508;50.856;4.380;2023-03-11T03:01:21;2.10;52.20
22682;DHT22;11508;50.856;4.380;2023-03-11T03:03:46;2.10;49.80
22682;DHT22;11508;50.856;4.380;2023-03-11T03:06:12;2.10;58.70
22682;DHT22;11508;50.856;4.380;2023-03-11T03:08:38;2.10;59.80
22682;DHT22;11508;50.856;4.380;2023-03-11T03:11:04;2.10;55.50
22682;DHT22;11508;50.856;4.380;2023-03-11T03:13:30;2.20;55.40
22682;DHT22;11508;50.856;4.380;2023-03-11T03:15:57;2.20;53.10
22682;DHT22;11508;50.856;4.380;2023-03-11T03:18:22;2.20;53.90
22682;DHT22;11508;50.856;4.380;2023-03-11T03:20:49;2.40;59.90
22682;DHT22;11508;50.856;4.380;2023-03-11T03:23:15;2.40;46.20
22682;DHT22;11508;50.856;4.380;2023-03-11T03:25:42;2.50;43.80
22682;DHT22;11508;50.856;4.380;2023-03-11T03:28:08;2.40;37.80
22682;DHT22;11508;50.856;4.380;2023-03-11T03:30:34;2.50;46.80
22682;DHT22;11508;50.856;4.380;2023-03-11T03:33:00;2.80;40.00
22682;DHT22;11508;50.856;4.380;2023-03-11T03:35:25;2.70;18.30
22682;DHT22;11508;50.856;4.380;2023-03-11T03:37:51;2.60;19.50
22682;DHT22;11508;50.856;4.380;2023-03-11T03:40:17;2.60;31.70
22682;DHT22;11508;50.856;4.380;2023-03-11T03:42:43;2.50;35.20
22682;DHT22;11508;50.856;4.380;2023-03-11T03:45:09;2.50;35.50
22682;DHT22;11508;50.856;4.380;2023-03-11T03:47:35;2.40;47.30
22682;DHT22;11508;50.856;4.380;2023-03-11T03:50:05;2.40;45.10
22682;DHT22;11508;50.856;4.380;2023-03-11T03:52:31;2.40;48.00
22682;DHT22;11508;50.856;4.380;2023-03-11T03:54:58;2.40;46.40
22682;DHT22;11508;50.856;4.380;2023-03-11T03:57:27;2.30;44.00
22682;DHT22;11508;50.856;4.380;2023-03-11T03:59:53;2.20;49.20
22682;DHT22;11508;50.856;4.380;2023-03-11T04:02:18;2.30;54.80
22682;DHT22;11508;50.856;4.380;2023-03-11T04:04:44;2.30;52.60
22682;DHT22;11508;50.856;4.380;2023-03-11T04:07:10;2.30;44.60
22682;DHT22;11508;50.856;4.380;2023-03-11T04:09:40;2.20;56.60
22682;DHT22;11508;50.856;4.380;2023-03-11T04:12:06;2.20;66.10
22682;DHT22;11508;50.856;4.380;2023-03-11T04:14:32;2.20;56.80
22682;DHT22;11508;50.856;4.380;2023-03-11T04:16:58;2.20;54.80
22682;DHT22;11508;50.856;4.380;2023-03-11T04:19:24;2.30;51.70
22682;DHT22;11508;50.856;4.380;2023-03-11T04:21:50;2.30;48.40
22682;DHT22;11508;50.856;4.380;2023-03-11T04:24:17;2.20;54.60
22682;DHT22;11508;50.856;4.380;2023-03-11T04:26:43;2.40;58.20
22682;DHT22;11508;50.856;4.380;2023-03-11T04:29:08;2.40;50.40
22682;DHT22;11508;50.856;4.380;2023-03-11T04:31:34;2.40;42.00
22682;DHT22;11508;50.856;4.380;2023-03-11T04:34:00;2.30;46.00
22682;DHT22;11508;50.856;4.380;2023-03-11T04:36:26;2.30;60.00
22682;DHT22;11508;50.856;4.380;2023-03-11T04:38:52;2.70;55.50
22682;DHT22;11508;50.856;4.380;2023-03-11T04:41:18;2.80;30.90
22682;DHT22;11508;50.856;4.380;2023-03-11T04:43:43;2.60;26.20
22682;DHT22;11508;50.856;4.380;2023-03-11T04:46:09;2.50;32.70
22682;DHT22;11508;50.856;4.380;2023-03-11T04:48:35;2.30;55.80
22682;DHT22;11508;50.856;4.380;2023-03-11T04:51:00;2.20;66.90
22682;DHT22;11508;50.856;4.380;2023-03-11T04:53:26;2.20;69.50
22682;DHT22;11508;50.856;4.380;2023-03-11T04:55:52;2.20;72.80
22682;DHT22;11508;50.856;4.380;2023-03-11T04:58:18;2.10;83.20
22682;DHT22;11508;50.856;4.380;2023-03-11T05:00:44;2.10;88.40
22682;DHT22;11508;50.856;4.380;2023-03-11T05:03:10;2.00;90.40
22682;DHT22;11508;50.856;4.380;2023-03-11T05:05:35;2.00;92.50
22682;DHT22;11508;50.856;4.380;2023-03-11T05:08:01;2.00;92.80
22682;DHT22;11508;50.856;4.380;2023-03-11T05:10:27;2.20;92.20
22682;DHT22;11508;50.856;4.380;2023-03-11T05:12:53;2.10;83.70
22682;DHT22;11508;50.856;4.380;2023-03-11T05:15:18;2.10;90.90
22682;DHT22;11508;50.856;4.380;2023-03-11T05:17:44;2.20;87.80
22682;DHT22;11508;50.856;4.380;2023-03-11T05:20:11;2.10;83.40
22682;DHT22;11508;50.856;4.380;2023-03-11T05:22:37;2.00;91.70
22682;DHT22;11508;50.856;4.380;2023-03-11T05:25:04;1.90;94.60
22682;DHT22;11508;50.856;4.380;2023-03-11T05:27:30;1.90;96.10
22682;DHT22;11508;50.856;4.380;2023-03-11T05:29:56;1.80;97.80
22682;DHT22;11508;50.856;4.380;2023-03-11T05:32:22;1.90;97.70
22682;DHT22;11508;50.856;4.380;2023-03-11T05:34:47;1.80;97.10
22682;DHT22;11508;50.856;4.380;2023-03-11T05:37:13;1.80;98.80
22682;DHT22;11508;50.856;4.380;2023-03-11T05:39:39;1.80;99.90
22682;DHT22;11508;50.856;4.380;2023-03-11T05:42:05;1.80;98.50
22682;DHT22;11508;50.856;4.380;2023-03-11T05:44:32;1.70;99.90
22682;DHT22;11508;50.856;4.380;2023-03-11T05:46:58;1.80;99.90
22682;DHT22;11508;50.856;4.380;2023-03-11T05:49:24;2.00;99.90
22682;DHT22;11508;50.856;4.380;2023-03-11T05:51:52;2.00;99.90
22682;DHT22;11508;50.856;4.380;2023-03-11T05:54:18;1.80;98.80
22682;DHT22;11508;50.856;4.380;2023-03-11T05:56:45;1.80;99.90
22682;DHT22;11508;50.856;4.380;2023-03-11T05:59:12;1.70;99.90
22682;DHT22;11508;50.856;4.380;2023-03-11T06:01:39;1.70;99.90
22682;DHT22;11508;50.856;4.380;2023-03-11T06:04:05;1.80;99.90
22682;DHT22;11508;50.856;4.380;2023-03-11T06:06:31;2.00;99.90
22682;DHT22;11508;50.856;4.380;2023-03-11T06:08:57;2.10;99.90
22682;DHT22;11508;50.856;4.380;2023-03-11T06:11:22;2.00;99.90
22682;DHT22;11508;50.856;4.380;2023-03-11T06:13:52;2.10;99.90
22682;DHT22;11508;50.856;4.380;2023-03-11T06:16:19;2.10;98.90
22682;DHT22;11508;50.856;4.380;2023-03-11T06:18:45;2.20;99.80
22682;DHT22;11508;50.856;4.380;2023-03-11T06:21:16;2.10;96.90
22682;DHT22;11508;50.856;4.380;2023-03-11T06:23:43;2.00;99.90
22682;DHT22;11508;50.856;4.380;2023-03-11T06:26:10;2.10;99.90
22682;DHT22;11508;50.856;4.380;2023-03-11T06:28:37;2.20;99.90
22682;DHT22;11508;50.856;4.380;2023-03-11T06:31:11;2.20;99.90
22682;DHT22;11508;50.856;4.380;2023-03-11T06:33:38;2.30;99.50
22682;DHT22;11508;50.856;4.380;2023-03-11T06:36:05;2.20;99.30
22682;DHT22;11508;50.856;4.380;2023-03-11T06:38:32;2.20;99.90
22682;DHT22;11508;50.856;4.380;2023-03-11T06:41:02;2.20;99.90
22682;DHT22;11508;50.856;4.380;2023-03-11T06:43:29;2.20;99.90
22682;DHT22;11508;50.856;4.380;2023-03-11T06:45:57;2.30;99.90
22682;DHT22;11508;50.856;4.380;2023-03-11T06:48:23;2.30;99.90
22682;DHT22;11508;50.856;4.380;2023-03-11T06:50:54;2.30;99.90
22682;DHT22;11508;50.856;4.380;2023-03-11T06:53:19;2.40;99.90
22682;DHT22;11508;50.856;4.380;2023-03-11T06:55:45;2.50;98.90
22682;DHT22;11508;50.856;4.380;2023-03-11T06:58:11;2.40;97.80
22682;DHT22;11508;50.856;4.380;2023-03-11T07:00:36;2.50;96.40
22682;DHT22;11508;50.856;4.380;2023-03-11T07:03:02;2.40;97.60
22682;DHT22;11508;50.856;4.380;2023-03-11T07:05:28;2.50;98.20
22682;DHT22;11508;50.856;4.380;2023-03-11T07:07:54;2.60;95.00
22682;DHT22;11508;50.856;4.380;2023-03-11T07:10:20;2.60;97.20
22682;DHT22;11508;50.856;4.380;2023-03-11T07:12:45;2.80;96.50
22682;DHT22;11508;50.856;4.380;2023-03-11T07:15:11;2.80;89.80
22682;DHT22;11508;50.856;4.380;2023-03-11T07:17:38;2.80;90.10
22682;DHT22;11508;50.856;4.380;2023-03-11T07:20:04;2.90;88.90
22682;DHT22;11508;50.856;4.380;2023-03-11T07:22:30;2.80;77.90
22682;DHT22;11508;50.856;4.380;2023-03-11T07:24:56;2.80;78.70
22682;DHT22;11508;50.856;4.380;2023-03-11T07:27:21;2.90;82.10
22682;DHT22;11508;50.856;4.380;2023-03-11T07:29:47;2.90;72.50
22682;DHT22;11508;50.856;4.380;2023-03-11T07:32:13;3.10;79.00
22682;DHT22;11508;50.856;4.380;2023-03-11T07:34:38;3.30;78.00
22682;DHT22;11508;50.856;4.380;2023-03-11T07:37:04;3.50;66.20
22682;DHT22;11508;50.856;4.380;2023-03-11T07:39:30;3.60;58.30
22682;DHT22;11508;50.856;4.380;2023-03-11T07:41:55;3.80;61.40
22682;DHT22;11508;50.856;4.380;2023-03-11T07:44:21;3.90;46.10
22682;DHT22;11508;50.856;4.380;2023-03-11T07:46:46;4.00;44.70
22682;DHT22;11508;50.856;4.380;2023-03-11T07:49:12;3.90;27.70
22682;DHT22;11508;50.856;4.380;2023-03-11T07:51:38;3.80;32.10
22682;DHT22;11508;50.856;4.380;2023-03-11T07:54:09;4.00;31.80
22682;DHT22;11508;50.856;4.380;2023-03-11T07:56:35;3.70;23.30
22682;DHT22;11508;50.856;4.380;2023-03-11T07:59:03;3.80;36.20
22682;DHT22;11508;50.856;4.380;2023-03-11T08:01:31;3.80;29.40
22682;DHT22;11508;50.856;4.380;2023-03-11T08:04:05;3.90;27.80
22682;DHT22;11508;50.856;4.380;2023-03-11T08:06:32;4.00;20.80
22682;DHT22;11508;50.856;4.380;2023-03-11T08:08:59;3.90;10.70
22682;DHT22;11508;50.856;4.380;2023-03-11T08:11:26;3.90;25.10
22682;DHT22;11508;50.856;4.380;2023-03-11T08:13:51;4.00;18.50
22682;DHT22;11508;50.856;4.380;2023-03-11T08:16:20;4.10;13.10
22682;DHT22;11508;50.856;4.380;2023-03-11T08:18:47;4.20;9.10
22682;DHT22;11508;50.856;4.380;2023-03-11T08:21:16;4.30;3.70
22682;DHT22;11508;50.856;4.380;2023-03-11T08:23:42;4.40;1.00
22682;DHT22;11508;50.856;4.380;2023-03-11T08:26:12;4.90;1.00
22682;DHT22;11508;50.856;4.380;2023-03-11T08:28:38;4.90;1.00
22682;DHT22;11508;50.856;4.380;2023-03-11T08:31:12;4.80;1.00
22682;DHT22;11508;50.856;4.380;2023-03-11T08:33:38;4.80;1.00
22682;DHT22;11508;50.856;4.380;2023-03-11T08:36:04;4.90;1.00
22682;DHT22;11508;50.856;4.380;2023-03-11T08:38:29;4.90;1.00
22682;DHT22;11508;50.856;4.380;2023-03-11T08:40:55;4.70;1.00
22682;DHT22;11508;50.856;4.380;2023-03-11T08:43:21;4.50;1.00
22682;DHT22;11508;50.856;4.380;2023-03-11T08:45:46;4.30;1.00
22682;DHT22;11508;50.856;4.380;2023-03-11T08:48:12;4.20;1.00
22682;DHT22;11508;50.856;4.380;2023-03-11T08:50:41;4.20;1.00
22682;DHT22;11508;50.856;4.380;2023-03-11T08:53:08;4.40;1.00
22682;DHT22;11508;50.856;4.380;2023-03-11T08:55:34;4.60;1.00
22682;DHT22;11508;50.856;4.380;2023-03-11T08:58:00;4.80;1.00
22682;DHT22;11508;50.856;4.380;2023-03-11T09:00:25;4.90;1.00
22682;DHT22;11508;50.856;4.380;2023-03-11T09:02:51;4.90;99.90
22682;DHT22;11508;50.856;4.380;2023-03-11T09:05:17;5.20;99.90
22682;DHT22;11508;50.856;4.380;2023-03-11T09:07:43;5.50;99.90
22682;DHT22;11508;50.856;4.380;2023-03-11T09:10:14;5.70;14.70
22682;DHT22;11508;50.856;4.380;2023-03-11T09:12:40;5.70;1.00
22682;DHT22;11508;50.856;4.380;2023-03-11T09:15:06;5.80;76.00
22682;DHT22;11508;50.856;4.380;2023-03-11T09:17:32;5.40;1.00
22682;DHT22;11508;50.856;4.380;2023-03-11T09:19:58;5.40;1.00
22682;DHT22;11508;50.856;4.380;2023-03-11T09:22:24;5.50;14.00
22682;DHT22;11508;50.856;4.380;2023-03-11T09:24:49;5.60;1.30
22682;DHT22;11508;50.856;4.380;2023-03-11T09:27:15;5.70;1.00
22682;DHT22;11508;50.856;4.380;2023-03-11T09:29:41;5.80;1.00
22682;DHT22;11508;50.856;4.380;2023-03-11T09:32:07;5.60;99.90
22682;DHT22;11508;50.856;4.380;2023-03-11T09:34:34;6.00;1.00
22682;DHT22;11508;50.856;4.380;2023-03-11T09:37:00;6.30;99.90
22682;DHT22;11508;50.856;4.380;2023-03-11T09:39:26;6.70;11.00
22682;DHT22;11508;50.856;4.380;2023-03-11T09:42:34;7.00;35.00
22682;DHT22;11508;50.856;4.380;2023-03-11T09:50:21;7.00;99.90
22682;DHT22;11508;50.856;4.380;2023-03-11T09:55:42;6.60;99.90
22682;DHT22;11508;50.856;4.380;2023-03-11T09:58:12;7.00;99.90
22682;DHT22;11508;50.856;4.380;2023-03-11T10:00:38;6.90;99.90
22682;DHT22;11508;50.856;4.380;2023-03-11T10:03:13;7.00;99.90
22682;DHT22;11508;50.856;4.380;2023-03-11T10:05:43;7.20;99.90
22682;DHT22;11508;50.856;4.380;2023-03-11T10:08:28;7.40;99.90
22682;DHT22;11508;50.856;4.380;2023-03-11T10:14:11;7.80;99.90
22682;DHT22;11508;50.856;4.380;2023-03-11T10:19:52;7.30;95.80
22682;DHT22;11508;50.856;4.380;2023-03-11T10:25:15;6.40;99.90
22682;DHT22;11508;50.856;4.380;2023-03-11T10:27:48;6.40;99.90
22682;DHT22;11508;50.856;4.380;2023-03-11T10:33:28;7.10;99.90
22682;DHT22;11508;50.856;4.380;2023-03-11T10:36:00;6.80;99.90
22682;DHT22;11508;50.856;4.380;2023-03-11T10:38:55;6.70;99.90
22682;DHT22;11508;50.856;4.380;2023-03-11T10:43:59;8.40;99.90
22682;DHT22;11508;50.856;4.380;2023-03-11T10:46:27;9.30;99.90
22682;DHT22;11508;50.856;4.380;2023-03-11T10:48:53;9.10;1.00
22682;DHT22;11508;50.856;4.380;2023-03-11T10:51:23;9.40;1.00
22682;DHT22;11508;50.856;4.380;2023-03-11T10:53:52;10.10;1.00
22682;DHT22;11508;50.856;4.380;2023-03-11T10:56:53;10.20;99.90
22682;DHT22;11508;50.856;4.380;2023-03-11T10:59:44;9.30;99.90
22682;DHT22;11508;50.856;4.380;2023-03-11T11:07:41;8.90;99.90
22682;DHT22;11508;50.856;4.380;2023-03-11T11:10:24;9.30;99.90
22682;DHT22;11508;50.856;4.380;2023-03-11T11:13:01;8.90;99.90
22682;DHT22;11508;50.856;4.380;2023-03-11T11:15:51;8.80;99.90
22682;DHT22;11508;50.856;4.380;2023-03-11T11:18:20;9.70;99.90
22682;DHT22;11508;50.856;4.380;2023-03-11T11:21:01;10.60;99.90
22682;DHT22;11508;50.856;4.380;2023-03-11T11:23:49;11.50;99.90
22682;DHT22;11508;50.856;4.380;2023-03-11T11:26:21;13.00;99.90
22682;DHT22;11508;50.856;4.380;2023-03-11T11:31:41;13.70;99.90
22682;DHT22;11508;50.856;4.380;2023-03-11T11:34:40;13.60;99.90
22682;DHT22;11508;50.856;4.380;2023-03-11T11:37:11;12.90;99.90
22682;DHT22;11508;50.856;4.380;2023-03-11T11:39:51;12.70;99.90
22682;DHT22;11508;50.856;4.380;2023-03-11T11:42:19;12.30;99.90
22682;DHT22;11508;50.856;4.380;2023-03-11T11:44:51;11.90;99.90
22682;DHT22;11508;50.856;4.380;2023-03-11T11:49:51;12.10;99.90
22682;DHT22;11508;50.856;4.380;2023-03-11T11:52:26;12.40;99.90
22682;DHT22;11508;50.856;4.380;2023-03-11T11:57:26;10.30;99.90
22682;DHT22;11508;50.856;4.380;2023-03-11T11:59:52;9.70;99.90
22682;DHT22;11508;50.856;4.380;2023-03-11T12:02:23;10.30;99.90
22682;DHT22;11508;50.856;4.380;2023-03-11T12:08:00;9.40;99.90
22682;DHT22;11508;50.856;4.380;2023-03-11T12:10:41;9.20;99.90
22682;DHT22;11508;50.856;4.380;2023-03-11T12:15:52;11.00;99.90
22682;DHT22;11508;50.856;4.380;2023-03-11T12:18:24;11.30;99.90
22682;DHT22;11508;50.856;4.380;2023-03-11T12:20:55;11.50;99.90
22682;DHT22;11508;50.856;4.380;2023-03-11T12:26:34;10.90;99.90
22682;DHT22;11508;50.856;4.380;2023-03-11T12:31:38;10.60;99.90
22682;DHT22;11508;50.856;4.380;2023-03-11T12:34:15;10.30;99.90
22682;DHT22;11508;50.856;4.380;2023-03-11T12:36:44;11.40;99.90
22682;DHT22;11508;50.856;4.380;2023-03-11T12:39:29;10.60;99.90
22682;DHT22;11508;50.856;4.380;2023-03-11T12:42:14;10.50;99.90
22682;DHT22;11508;50.856;4.380;2023-03-11T12:44:41;11.30;99.90
22682;DHT22;11508;50.856;4.380;2023-03-11T13:03:09;12.90;99.90
22682;DHT22;11508;50.856;4.380;2023-03-11T13:05:53;14.10;99.90
22682;DHT22;11508;50.856;4.380;2023-03-11T13:08:22;13.70;99.90
22682;DHT22;11508;50.856;4.380;2023-03-11T13:10:52;12.50;99.90
22682;DHT22;11508;50.856;4.380;2023-03-11T13:18:47;13.40;99.90
22682;DHT22;11508;50.856;4.380;2023-03-11T13:32:45;13.40;99.90
22682;DHT22;11508;50.856;4.380;2023-03-11T13:35:27;12.70;99.90
22682;DHT22;11508;50.856;4.380;2023-03-11T13:40:42;11.90;99.90
22682;DHT22;11508;50.856;4.380;2023-03-11T13:46:08;10.50;99.90
22682;DHT22;11508;50.856;4.380;2023-03-11T13:51:20;11.50;99.90
22682;DHT22;11508;50.856;4.380;2023-03-11T13:54:33;12.00;99.90
22682;DHT22;11508;50.856;4.380;2023-03-11T13:56:51;11.60;99.90
22682;DHT22;11508;50.856;4.380;2023-03-11T13:59:37;12.00;99.90
22682;DHT22;11508;50.856;4.380;2023-03-11T14:02:13;12.30;99.90
22682;DHT22;11508;50.856;4.380;2023-03-11T14:04:50;11.50;99.90
22682;DHT22;11508;50.856;4.380;2023-03-11T14:07:25;11.40;99.90
22682;DHT22;11508;50.856;4.380;2023-03-11T14:10:07;11.50;99.90
22682;DHT22;11508;50.856;4.380;2023-03-11T14:12:33;11.50;99.90
22682;DHT22;11508;50.856;4.380;2023-03-11T14:15:03;12.40;99.90
22682;DHT22;11508;50.856;4.380;2023-03-11T14:17:30;12.30;99.90
22682;DHT22;11508;50.856;4.380;2023-03-11T14:20:21;11.70;99.90
22682;DHT22;11508;50.856;4.380;2023-03-11T14:22:51;11.40;99.90
22682;DHT22;11508;50.856;4.380;2023-03-11T14:25:28;10.40;99.90
22682;DHT22;11508;50.856;4.380;2023-03-11T14:28:01;10.80;99.90
22682;DHT22;11508;50.856;4.380;2023-03-11T14:30:32;10.70;99.90
22682;DHT22;11508;50.856;4.380;2023-03-11T14:33:04;9.80;99.90
22682;DHT22;11508;50.856;4.380;2023-03-11T14:35:31;9.00;99.90
22682;DHT22;11508;50.856;4.380;2023-03-11T14:37:58;8.90;99.90
22682;DHT22;11508;50.856;4.380;2023-03-11T14:40:26;9.00;99.90
22682;DHT22;11508;50.856;4.380;2023-03-11T14:42:54;9.40;99.90
22682;DHT22;11508;50.856;4.380;2023-03-11T14:45:23;9.40;99.90
22682;DHT22;11508;50.856;4.380;2023-03-11T14:48:04;9.20;99.90
22682;DHT22;11508;50.856;4.380;2023-03-11T14:50:33;8.90;99.90
22682;DHT22;11508;50.856;4.380;2023-03-11T14:53:18;8.30;99.90
22682;DHT22;11508;50.856;4.380;2023-03-11T14:55:50;8.40;99.90
22682;DHT22;11508;50.856;4.380;2023-03-11T14:58:40;8.00;99.90
22682;DHT22;11508;50.856;4.380;2023-03-11T15:01:26;7.80;99.90
22682;DHT22;11508;50.856;4.380;2023-03-11T15:04:03;7.90;99.90
22682;DHT22;11508;50.856;4.380;2023-03-11T15:06:29;7.90;99.90
22682;DHT22;11508;50.856;4.380;2023-03-11T15:11:23;7.80;99.90
22682;DHT22;11508;50.856;4.380;2023-03-11T15:13:50;7.70;99.90
22682;DHT22;11508;50.856;4.380;2023-03-11T15:16:29;7.70;99.90
22682;DHT22;11508;50.856;4.380;2023-03-11T15:18:57;7.80;99.90
22682;DHT22;11508;50.856;4.380;2023-03-11T15:21:23;7.90;99.90
22682;DHT22;11508;50.856;4.380;2023-03-11T15:23:51;8.00;99.90
22682;DHT22;11508;50.856;4.380;2023-03-11T15:26:29;8.20;99.90
22682;DHT22;11508;50.856;4.380;2023-03-11T15:29:10;8.10;99.90
22682;DHT22;11508;50.856;4.380;2023-03-11T15:31:38;8.00;99.90
22682;DHT22;11508;50.856;4.380;2023-03-11T15:34:27;8.20;99.90
22682;DHT22;11508;50.856;4.380;2023-03-11T15:37:01;8.00;99.90
22682;DHT22;11508;50.856;4.380;2023-03-11T15:47:18;8.40;99.90
22682;DHT22;11508;50.856;4.380;2023-03-11T15:49:44;8.50;99.90
22682;DHT22;11508;50.856;4.380;2023-03-11T15:52:11;8.10;99.90
22682;DHT22;11508;50.856;4.380;2023-03-11T15:54:37;8.10;99.90
22682;DHT22;11508;50.856;4.380;2023-03-11T15:57:22;8.10;99.90
22682;DHT22;11508;50.856;4.380;2023-03-11T15:59:49;8.10;99.90
22682;DHT22;11508;50.856;4.380;2023-03-11T16:02:25;8.00;99.90
22682;DHT22;11508;50.856;4.380;2023-03-11T16:04:52;7.70;99.90
22682;DHT22;11508;50.856;4.380;2023-03-11T16:07:18;8.00;99.90
22682;DHT22;11508;50.856;4.380;2023-03-11T16:09:43;8.20;99.90
22682;DHT22;11508;50.856;4.380;2023-03-11T16:12:18;8.50;99.90
22682;DHT22;11508;50.856;4.380;2023-03-11T16:14:45;9.00;99.90
22682;DHT22;11508;50.856;4.380;2023-03-11T16:17:12;8.90;99.90
22682;DHT22;11508;50.856;4.380;2023-03-11T16:19:44;9.00;99.90
22682;DHT22;11508;50.856;4.380;2023-03-11T16:22:19;8.70;99.90
22682;DHT22;11508;50.856;4.380;2023-03-11T16:24:47;8.30;99.90
22682;DHT22;11508;50.856;4.380;2023-03-11T16:27:14;8.10;99.90
22682;DHT22;11508;50.856;4.380;2023-03-11T16:29:42;8.20;99.90
22682;DHT22;11508;50.856;4.380;2023-03-11T16:32:08;8.20;99.90
22682;DHT22;11508;50.856;4.380;2023-03-11T16:34:41;8.00;99.90
22682;DHT22;11508;50.856;4.380;2023-03-11T16:37:07;8.00;99.90
22682;DHT22;11508;50.856;4.380;2023-03-11T16:39:33;8.10;99.90
22682;DHT22;11508;50.856;4.380;2023-03-11T16:41:59;8.70;99.90
22682;DHT22;11508;50.856;4.380;2023-03-11T16:44:26;8.70;99.90
22682;DHT22;11508;50.856;4.380;2023-03-11T16:46:51;8.30;99.90
22682;DHT22;11508;50.856;4.380;2023-03-11T16:49:17;8.20;99.90
22682;DHT22;11508;50.856;4.380;2023-03-11T16:51:43;8.10;99.90
22682;DHT22;11508;50.856;4.380;2023-03-11T16:54:09;7.90;99.90
22682;DHT22;11508;50.856;4.380;2023-03-11T16:56:36;8.00;99.90
22682;DHT22;11508;50.856;4.380;2023-03-11T16:59:05;8.00;99.90
22682;DHT22;11508;50.856;4.380;2023-03-11T17:01:31;7.80;99.90
22682;DHT22;11508;50.856;4.380;2023-03-11T17:03:56;7.80;99.90
22682;DHT22;11508;50.856;4.380;2023-03-11T17:06:22;8.10;99.90
22682;DHT22;11508;50.856;4.380;2023-03-11T17:08:48;7.70;99.90
22682;DHT22;11508;50.856;4.380;2023-03-11T17:11:20;7.90;99.90
22682;DHT22;11508;50.856;4.380;2023-03-11T17:13:46;7.80;99.90
22682;DHT22;11508;50.856;4.380;2023-03-11T17:16:12;7.80;99.90
22682;DHT22;11508;50.856;4.380;2023-03-11T17:18:38;7.90;99.90
22682;DHT22;11508;50.856;4.380;2023-03-11T17:21:06;8.10;99.90
22682;DHT22;11508;50.856;4.380;2023-03-11T17:23:31;7.90;99.90
22682;DHT22;11508;50.856;4.380;2023-03-11T17:25:57;7.90;99.90
22682;DHT22;11508;50.856;4.380;2023-03-11T17:28:23;7.90;99.90
22682;DHT22;11508;50.856;4.380;2023-03-11T17:30:49;7.80;99.90
22682;DHT22;11508;50.856;4.380;2023-03-11T17:33:15;7.60;99.90
22682;DHT22;11508;50.856;4.380;2023-03-11T17:35:41;7.60;99.90
22682;DHT22;11508;50.856;4.380;2023-03-11T17:38:06;7.70;99.90